sensor_id;sensor_type;location;lat;lon;timestamp;temperature;humidity
12971;DHT22;6550;48.650;8.774;2023-02-28T00:01:15;1.40;99.90
12971;DHT22;6550;48.650;8.774;2023-02-28T00:03:44;1.30;99.90
12971;DHT22;6550;48.650;8.774;2023-02-28T00:06:11;1.20;99.90
12971;DHT22;6550;48.650;8.774;2023-02-28T00:08:40;1.30;99.90
12971;DHT22;6550;48.650;8.774;2023-02-28T00:11:14;1.30;99.90
12971;DHT22;6550;48.650;8.774;2023-02-28T00:13:44;1.20;99.90
12971;DHT22;6550;48.650;8.774;2023-02-28T00:16:15;1.20;99.90
12971;DHT22;6550;48.650;8.774;2023-02-28T00:18:42;1.20;99.90
12971;DHT22;6550;48.650;8.774;2023-02-28T00:21:11;1.20;99.90
12971;DHT22;6550;48.650;8.774;2023-02-28T00:23:38;1.20;99.90
12971;DHT22;6550;48.650;8.774;2023-02-28T00:26:05;1.10;99.90
12971;DHT22;6550;48.650;8.774;2023-02-28T00:28:32;1.10;99.90
12971;DHT22;6550;48.650;8.774;2023-02-28T00:30:59;1.10;99.90
12971;DHT22;6550;48.650;8.774;2023-02-28T00:36:05;1.10;99.90
12971;DHT22;6550;48.650;8.774;2023-02-28T00:38:32;1.00;99.90
12971;DHT22;6550;48.650;8.774;2023-02-28T00:40:59;0.90;99.90
12971;DHT22;6550;48.650;8.774;2023-02-28T00:43:33;0.90;99.90
12971;DHT22;6550;48.650;8.774;2023-02-28T00:46:03;0.90;99.90
12971;DHT22;6550;48.650;8.774;2023-02-28T00:48:30;0.90;99.90
12971;DHT22;6550;48.650;8.774;2023-02-28T00:51:00;0.90;99.90
12971;DHT22;6550;48.650;8.774;2023-02-28T00:53:27;0.90;99.90
12971;DHT22;6550;48.650;8.774;2023-02-28T00:56:02;0.80;99.90
12971;DHT22;6550;48.650;8.774;2023-02-28T00:58:29;0.50;99.90
12971;DHT22;6550;48.650;8.774;2023-02-28T01:00:56;0.80;99.90
12971;DHT22;6550;48.650;8.774;2023-02-28T01:03:23;0.70;99.90
12971;DHT22;6550;48.650;8.774;2023-02-28T01:05:52;0.80;99.90
12971;DHT22;6550;48.650;8.774;2023-02-28T01:08:22;0.80;99.90
12971;DHT22;6550;48.650;8.774;2023-02-28T01:10:51;0.70;99.90
12971;DHT22;6550;48.650;8.774;2023-02-28T01:13:18;0.70;99.90
12971;DHT22;6550;48.650;8.774;2023-02-28T01:15:51;0.70;99.90
12971;DHT22;6550;48.650;8.774;2023-02-28T01:18:20;0.70;99.90
12971;DHT22;6550;48.650;8.774;2023-02-28T01:20:51;0.70;99.90
12971;DHT22;6550;48.650;8.774;2023-02-28T01:23:20;0.70;99.90
12971;DHT22;6550;48.650;8.774;2023-02-28T01:25:50;0.70;99.90
12971;DHT22;6550;48.650;8.774;2023-02-28T01:28:17;1.10;99.90
12971;DHT22;6550;48.650;8.774;2023-02-28T01:30:48;0.60;99.90
12971;DHT22;6550;48.650;8.774;2023-02-28T01:33:15;0.60;99.90
12971;DHT22;6550;48.650;8.774;2023-02-28T01:38:11;0.60;99.90
12971;DHT22;6550;48.650;8.774;2023-02-28T01:40:48;0.60;99.90
12971;DHT22;6550;48.650;8.774;2023-02-28T01:46:14;0.60;99.90
12971;DHT22;6550;48.650;8.774;2023-02-28T01:48:52;0.50;99.90
12971;DHT22;6550;48.650;8.774;2023-02-28T01:54:08;0.50;99.90
12971;DHT22;6550;48.650;8.774;2023-02-28T01:56:46;0.50;99.90
12971;DHT22;6550;48.650;8.774;2023-02-28T01:59:22;0.50;99.90
12971;DHT22;6550;48.650;8.774;2023-02-28T02:01:50;0.50;99.90
12971;DHT22;6550;48.650;8.774;2023-02-28T02:04:17;0.50;99.90
12971;DHT22;6550;48.650;8.774;2023-02-28T02:06:46;0.40;99.90
12971;DHT22;6550;48.650;8.774;2023-02-28T02:09:14;0.40;99.90
12971;DHT22;6550;48.650;8.774;2023-02-28T02:11:42;0.40;99.90
12971;DHT22;6550;48.650;8.774;2023-02-28T02:36:03;0.40;99.90
12971;DHT22;6550;48.650;8.774;2023-02-28T02:38:38;0.30;99.90
12971;DHT22;6550;48.650;8.774;2023-02-28T02:43:50;0.30;99.90
12971;DHT22;6550;48.650;8.774;2023-02-28T02:46:32;0.30;99.90
12971;DHT22;6550;48.650;8.774;2023-02-28T02:49:05;0.30;99.90
12971;DHT22;6550;48.650;8.774;2023-02-28T02:51:33;0.30;99.90
12971;DHT22;6550;48.650;8.774;2023-02-28T02:56:39;0.30;99.90
12971;DHT22;6550;48.650;8.774;2023-02-28T02:59:11;0.30;99.90
12971;DHT22;6550;48.650;8.774;2023-02-28T03:01:40;0.30;99.90
12971;DHT22;6550;48.650;8.774;2023-02-28T03:04:14;0.30;99.90
12971;DHT22;6550;48.650;8.774;2023-02-28T03:06:42;0.30;99.90
12971;DHT22;6550;48.650;8.774;2023-02-28T03:09:11;0.30;99.90
12971;DHT22;6550;48.650;8.774;2023-02-28T03:11:39;0.30;99.90
12971;DHT22;6550;48.650;8.774;2023-02-28T03:14:35;0.20;99.90
12971;DHT22;6550;48.650;8.774;2023-02-28T03:17:14;0.20;99.90
12971;DHT22;6550;48.650;8.774;2023-02-28T03:28:30;0.10;99.90
12971;DHT22;6550;48.650;8.774;2023-02-28T03:31:07;0.20;99.90
12971;DHT22;6550;48.650;8.774;2023-02-28T03:33:42;0.30;99.90
12971;DHT22;6550;48.650;8.774;2023-02-28T03:36:15;0.30;99.90
12971;DHT22;6550;48.650;8.774;2023-02-28T03:38:51;0.30;99.90
12971;DHT22;6550;48.650;8.774;2023-02-28T03:41:27;0.30;99.90
12971;DHT22;6550;48.650;8.774;2023-02-28T03:44:04;0.40;99.90
12971;DHT22;6550;48.650;8.774;2023-02-28T03:46:36;0.40;99.90
12971;DHT22;6550;48.650;8.774;2023-02-28T03:49:19;0.30;99.90
12971;DHT22;6550;48.650;8.774;2023-02-28T03:51:47;0.40;99.90
12971;DHT22;6550;48.650;8.774;2023-02-28T03:54:31;0.40;99.90
12971;DHT22;6550;48.650;8.774;2023-02-28T03:57:26;0.40;99.90
12971;DHT22;6550;48.650;8.774;2023-02-28T03:59:59;0.40;99.90
12971;DHT22;6550;48.650;8.774;2023-02-28T04:02:27;0.40;99.90
12971;DHT22;6550;48.650;8.774;2023-02-28T04:04:56;0.40;99.90
12971;DHT22;6550;48.650;8.774;2023-02-28T04:07:23;0.40;99.90
12971;DHT22;6550;48.650;8.774;2023-02-28T04:09:52;0.50;99.90
12971;DHT22;6550;48.650;8.774;2023-02-28T04:12:21;0.40;99.90
12971;DHT22;6550;48.650;8.774;2023-02-28T04:14:52;0.40;99.90
12971;DHT22;6550;48.650;8.774;2023-02-28T04:19:50;0.50;99.90
12971;DHT22;6550;48.650;8.774;2023-02-28T04:22:17;0.50;99.90
12971;DHT22;6550;48.650;8.774;2023-02-28T04:24:44;0.50;99.90
12971;DHT22;6550;48.650;8.774;2023-02-28T04:27:16;0.50;99.90
12971;DHT22;6550;48.650;8.774;2023-02-28T04:29:43;0.60;99.90
12971;DHT22;6550;48.650;8.774;2023-02-28T04:32:11;0.60;99.90
12971;DHT22;6550;48.650;8.774;2023-02-28T04:34:41;0.50;99.90
12971;DHT22;6550;48.650;8.774;2023-02-28T04:37:07;0.60;99.90
12971;DHT22;6550;48.650;8.774;2023-02-28T04:39:40;0.60;99.90
12971;DHT22;6550;48.650;8.774;2023-02-28T04:42:10;0.70;99.90
12971;DHT22;6550;48.650;8.774;2023-02-28T04:44:37;0.90;99.90
12971;DHT22;6550;48.650;8.774;2023-02-28T04:47:06;0.60;99.90
12971;DHT22;6550;48.650;8.774;2023-02-28T04:49:35;0.50;99.90
12971;DHT22;6550;48.650;8.774;2023-02-28T04:52:02;0.60;99.90
12971;DHT22;6550;48.650;8.774;2023-02-28T04:54:29;0.60;99.90
12971;DHT22;6550;48.650;8.774;2023-02-28T04:56:56;0.80;99.90
12971;DHT22;6550;48.650;8.774;2023-02-28T04:59:23;0.50;99.90
12971;DHT22;6550;48.650;8.774;2023-02-28T05:01:52;0.70;99.90
12971;DHT22;6550;48.650;8.774;2023-02-28T05:04:19;0.60;99.90
12971;DHT22;6550;48.650;8.774;2023-02-28T05:06:51;1.90;99.90
12971;DHT22;6550;48.650;8.774;2023-02-28T05:09:21;0.60;99.90
12971;DHT22;6550;48.650;8.774;2023-02-28T05:11:48;0.70;99.90
12971;DHT22;6550;48.650;8.774;2023-02-28T05:14:17;0.90;99.90
12971;DHT22;6550;48.650;8.774;2023-02-28T05:16:44;0.70;99.90
12971;DHT22;6550;48.650;8.774;2023-02-28T05:19:11;0.80;99.90
12971;DHT22;6550;48.650;8.774;2023-02-28T05:21:48;0.80;99.90
12971;DHT22;6550;48.650;8.774;2023-02-28T05:26:51;0.80;99.90
12971;DHT22;6550;48.650;8.774;2023-02-28T05:29:19;0.80;99.90
12971;DHT22;6550;48.650;8.774;2023-02-28T05:31:48;0.80;99.90
12971;DHT22;6550;48.650;8.774;2023-02-28T05:34:15;0.80;99.90
12971;DHT22;6550;48.650;8.774;2023-02-28T05:36:44;0.80;99.90
12971;DHT22;6550;48.650;8.774;2023-02-28T05:39:16;0.80;99.90
12971;DHT22;6550;48.650;8.774;2023-02-28T05:41:43;0.80;99.90
12971;DHT22;6550;48.650;8.774;2023-02-28T05:44:10;0.80;99.90
12971;DHT22;6550;48.650;8.774;2023-02-28T05:46:37;0.80;99.90
12971;DHT22;6550;48.650;8.774;2023-02-28T05:49:04;0.90;99.90
12971;DHT22;6550;48.650;8.774;2023-02-28T05:51:34;1.10;99.90
12971;DHT22;6550;48.650;8.774;2023-02-28T05:54:02;0.80;99.90
12971;DHT22;6550;48.650;8.774;2023-02-28T05:56:32;1.10;99.90
12971;DHT22;6550;48.650;8.774;2023-02-28T05:59:01;0.90;99.90
12971;DHT22;6550;48.650;8.774;2023-02-28T06:01:35;0.90;99.90
12971;DHT22;6550;48.650;8.774;2023-02-28T06:04:04;0.80;99.90
12971;DHT22;6550;48.650;8.774;2023-02-28T06:06:31;0.90;99.90
12971;DHT22;6550;48.650;8.774;2023-02-28T06:08:57;1.00;99.90
12971;DHT22;6550;48.650;8.774;2023-02-28T06:11:24;0.90;99.90
12971;DHT22;6550;48.650;8.774;2023-02-28T06:13:56;0.80;99.90
12971;DHT22;6550;48.650;8.774;2023-02-28T06:16:24;0.90;99.90
12971;DHT22;6550;48.650;8.774;2023-02-28T06:18:53;1.00;99.90
12971;DHT22;6550;48.650;8.774;2023-02-28T06:21:24;1.00;99.90
12971;DHT22;6550;48.650;8.774;2023-02-28T06:23:54;0.90;99.90
12971;DHT22;6550;48.650;8.774;2023-02-28T06:26:21;1.00;99.90
12971;DHT22;6550;48.650;8.774;2023-02-28T06:28:48;1.00;99.90
12971;DHT22;6550;48.650;8.774;2023-02-28T06:31:16;0.80;99.90
12971;DHT22;6550;48.650;8.774;2023-02-28T06:33:44;1.10;99.90
12971;DHT22;6550;48.650;8.774;2023-02-28T06:36:15;1.00;99.90
12971;DHT22;6550;48.650;8.774;2023-02-28T06:38:42;1.00;99.90
12971;DHT22;6550;48.650;8.774;2023-02-28T06:41:10;1.00;99.90
12971;DHT22;6550;48.650;8.774;2023-02-28T06:43:40;1.00;99.90
12971;DHT22;6550;48.650;8.774;2023-02-28T06:46:12;1.00;99.90
12971;DHT22;6550;48.650;8.774;2023-02-28T06:48:40;1.10;99.90
12971;DHT22;6550;48.650;8.774;2023-02-28T06:51:12;1.10;99.90
12971;DHT22;6550;48.650;8.774;2023-02-28T06:53:40;1.20;99.90
12971;DHT22;6550;48.650;8.774;2023-02-28T06:56:14;1.20;99.90
12971;DHT22;6550;48.650;8.774;2023-02-28T06:58:41;1.30;99.90
12971;DHT22;6550;48.650;8.774;2023-02-28T07:01:08;1.30;99.90
12971;DHT22;6550;48.650;8.774;2023-02-28T07:03:36;1.40;99.90
12971;DHT22;6550;48.650;8.774;2023-02-28T07:06:02;1.40;99.90
12971;DHT22;6550;48.650;8.774;2023-02-28T07:08:30;1.50;99.90
12971;DHT22;6550;48.650;8.774;2023-02-28T07:10:58;1.50;99.90
12971;DHT22;6550;48.650;8.774;2023-02-28T07:13:25;1.60;99.90
12971;DHT22;6550;48.650;8.774;2023-02-28T07:16:00;1.60;99.90
12971;DHT22;6550;48.650;8.774;2023-02-28T07:18:28;1.70;99.90
12971;DHT22;6550;48.650;8.774;2023-02-28T07:20:57;1.80;99.90
12971;DHT22;6550;48.650;8.774;2023-02-28T07:23:27;1.80;99.90
12971;DHT22;6550;48.650;8.774;2023-02-28T07:25:53;1.90;99.90
12971;DHT22;6550;48.650;8.774;2023-02-28T07:28:23;1.90;99.90
12971;DHT22;6550;48.650;8.774;2023-02-28T07:30:52;2.00;99.90
12971;DHT22;6550;48.650;8.774;2023-02-28T07:33:22;2.10;99.90
12971;DHT22;6550;48.650;8.774;2023-02-28T07:35:50;2.00;99.90
12971;DHT22;6550;48.650;8.774;2023-02-28T07:38:17;2.10;99.90
12971;DHT22;6550;48.650;8.774;2023-02-28T07:40:43;2.20;99.90
12971;DHT22;6550;48.650;8.774;2023-02-28T07:43:13;2.20;99.90
12971;DHT22;6550;48.650;8.774;2023-02-28T07:45:42;2.20;99.90
12971;DHT22;6550;48.650;8.774;2023-02-28T07:48:08;2.30;99.90
12971;DHT22;6550;48.650;8.774;2023-02-28T07:50:38;2.20;99.90
12971;DHT22;6550;48.650;8.774;2023-02-28T07:53:05;2.30;99.90
12971;DHT22;6550;48.650;8.774;2023-02-28T07:55:32;2.30;99.90
12971;DHT22;6550;48.650;8.774;2023-02-28T07:57:58;2.30;99.90
12971;DHT22;6550;48.650;8.774;2023-02-28T08:00:25;2.30;99.90
12971;DHT22;6550;48.650;8.774;2023-02-28T08:02:55;2.40;99.90
12971;DHT22;6550;48.650;8.774;2023-02-28T08:05:22;2.40;99.90
12971;DHT22;6550;48.650;8.774;2023-02-28T08:07:49;2.40;99.90
12971;DHT22;6550;48.650;8.774;2023-02-28T08:10:18;2.40;99.90
12971;DHT22;6550;48.650;8.774;2023-02-28T08:12:47;2.40;99.90
12971;DHT22;6550;48.650;8.774;2023-02-28T08:15:14;2.40;99.90
12971;DHT22;6550;48.650;8.774;2023-02-28T08:17:43;2.40;99.90
12971;DHT22;6550;48.650;8.774;2023-02-28T08:20:10;2.50;99.90
12971;DHT22;6550;48.650;8.774;2023-02-28T08:22:41;2.50;99.90
12971;DHT22;6550;48.650;8.774;2023-02-28T08:25:11;2.60;99.90
12971;DHT22;6550;48.650;8.774;2023-02-28T08:27:41;2.60;99.90
12971;DHT22;6550;48.650;8.774;2023-02-28T08:30:11;2.60;99.90
12971;DHT22;6550;48.650;8.774;2023-02-28T08:32:39;2.60;99.90
12971;DHT22;6550;48.650;8.774;2023-02-28T08:35:07;2.60;99.90
12971;DHT22;6550;48.650;8.774;2023-02-28T08:37:35;2.60;99.90
12971;DHT22;6550;48.650;8.774;2023-02-28T08:40:03;2.90;99.90
12971;DHT22;6550;48.650;8.774;2023-02-28T08:42:32;3.10;99.90
12971;DHT22;6550;48.650;8.774;2023-02-28T08:45:01;3.10;99.90
12971;DHT22;6550;48.650;8.774;2023-02-28T08:47:28;3.10;99.90
12971;DHT22;6550;48.650;8.774;2023-02-28T08:49:55;3.00;99.90
12971;DHT22;6550;48.650;8.774;2023-02-28T08:52:21;3.00;99.90
12971;DHT22;6550;48.650;8.774;2023-02-28T08:54:48;3.00;99.90
12971;DHT22;6550;48.650;8.774;2023-02-28T08:57:15;3.00;99.90
12971;DHT22;6550;48.650;8.774;2023-02-28T08:59:42;3.30;99.90
12971;DHT22;6550;48.650;8.774;2023-02-28T09:02:13;3.00;99.90
12971;DHT22;6550;48.650;8.774;2023-02-28T09:04:40;3.00;99.90
12971;DHT22;6550;48.650;8.774;2023-02-28T09:07:07;3.10;99.90
12971;DHT22;6550;48.650;8.774;2023-02-28T09:09:36;3.10;99.90
12971;DHT22;6550;48.650;8.774;2023-02-28T09:12:03;3.20;99.90
12971;DHT22;6550;48.650;8.774;2023-02-28T09:14:31;3.20;99.90
12971;DHT22;6550;48.650;8.774;2023-02-28T09:17:00;3.30;99.90
12971;DHT22;6550;48.650;8.774;2023-02-28T09:19:27;3.30;99.90
12971;DHT22;6550;48.650;8.774;2023-02-28T09:21:54;3.30;99.90
12971;DHT22;6550;48.650;8.774;2023-02-28T09:24:20;3.40;99.90
12971;DHT22;6550;48.650;8.774;2023-02-28T09:26:47;3.40;99.90
12971;DHT22;6550;48.650;8.774;2023-02-28T09:29:30;3.40;99.90
12971;DHT22;6550;48.650;8.774;2023-02-28T09:31:59;3.40;99.90
12971;DHT22;6550;48.650;8.774;2023-02-28T09:34:27;3.40;99.90
12971;DHT22;6550;48.650;8.774;2023-02-28T09:36:54;3.50;99.90
12971;DHT22;6550;48.650;8.774;2023-02-28T09:39:22;3.50;99.90
12971;DHT22;6550;48.650;8.774;2023-02-28T09:41:51;3.50;99.90
12971;DHT22;6550;48.650;8.774;2023-02-28T09:44:43;3.60;99.90
12971;DHT22;6550;48.650;8.774;2023-02-28T09:47:31;3.70;99.90
12971;DHT22;6550;48.650;8.774;2023-02-28T09:50:11;3.80;99.90
12971;DHT22;6550;48.650;8.774;2023-02-28T09:52:45;3.80;99.90
12971;DHT22;6550;48.650;8.774;2023-02-28T10:01:06;4.00;99.90
12971;DHT22;6550;48.650;8.774;2023-02-28T10:03:40;4.00;99.90
12971;DHT22;6550;48.650;8.774;2023-02-28T10:06:21;4.10;99.90
12971;DHT22;6550;48.650;8.774;2023-02-28T10:09:01;4.10;99.80
12971;DHT22;6550;48.650;8.774;2023-02-28T10:11:33;4.10;99.90
12971;DHT22;6550;48.650;8.774;2023-02-28T10:16:50;4.20;99.50
12971;DHT22;6550;48.650;8.774;2023-02-28T10:19:30;4.20;99.30
12971;DHT22;6550;48.650;8.774;2023-02-28T10:22:08;4.20;99.50
12971;DHT22;6550;48.650;8.774;2023-02-28T10:24:48;4.30;99.40
12971;DHT22;6550;48.650;8.774;2023-02-28T10:29:52;4.40;99.40
12971;DHT22;6550;48.650;8.774;2023-02-28T10:32:34;4.50;99.30
12971;DHT22;6550;48.650;8.774;2023-02-28T10:35:45;4.50;99.20
12971;DHT22;6550;48.650;8.774;2023-02-28T10:38:17;4.60;99.30
12971;DHT22;6550;48.650;8.774;2023-02-28T10:40:44;4.70;98.50
12971;DHT22;6550;48.650;8.774;2023-02-28T10:46:15;4.80;99.20
12971;DHT22;6550;48.650;8.774;2023-02-28T10:51:08;5.00;97.70
12971;DHT22;6550;48.650;8.774;2023-02-28T10:56:29;5.10;97.50
12971;DHT22;6550;48.650;8.774;2023-02-28T11:01:37;5.20;97.10
12971;DHT22;6550;48.650;8.774;2023-02-28T11:11:56;5.60;96.10
12971;DHT22;6550;48.650;8.774;2023-02-28T11:14:28;5.70;95.60
12971;DHT22;6550;48.650;8.774;2023-02-28T11:17:00;5.80;95.50
12971;DHT22;6550;48.650;8.774;2023-02-28T11:19:36;5.90;95.10
12971;DHT22;6550;48.650;8.774;2023-02-28T11:22:05;6.00;95.00
12971;DHT22;6550;48.650;8.774;2023-02-28T11:24:42;6.10;94.80
12971;DHT22;6550;48.650;8.774;2023-02-28T11:30:00;6.40;94.10
12971;DHT22;6550;48.650;8.774;2023-02-28T11:32:28;6.50;93.80
12971;DHT22;6550;48.650;8.774;2023-02-28T11:37:39;6.70;93.20
12971;DHT22;6550;48.650;8.774;2023-02-28T11:40:22;6.80;93.20
12971;DHT22;6550;48.650;8.774;2023-02-28T11:48:24;7.30;91.40
12971;DHT22;6550;48.650;8.774;2023-02-28T11:54:48;7.50;91.40
12971;DHT22;6550;48.650;8.774;2023-02-28T12:03:11;7.60;91.20
12971;DHT22;6550;48.650;8.774;2023-02-28T12:08:47;7.60;90.50
12971;DHT22;6550;48.650;8.774;2023-02-28T12:13:57;7.90;90.70
12971;DHT22;6550;48.650;8.774;2023-02-28T12:16:33;8.10;90.20
12971;DHT22;6550;48.650;8.774;2023-02-28T12:19:44;8.20;89.60
12971;DHT22;6550;48.650;8.774;2023-02-28T12:22:30;8.20;89.10
12971;DHT22;6550;48.650;8.774;2023-02-28T12:27:37;9.20;88.10
12971;DHT22;6550;48.650;8.774;2023-02-28T12:32:50;9.10;85.70
12971;DHT22;6550;48.650;8.774;2023-02-28T12:35:26;9.60;85.00
12971;DHT22;6550;48.650;8.774;2023-02-28T12:40:33;10.30;82.80
12971;DHT22;6550;48.650;8.774;2023-02-28T12:43:07;10.10;81.90
12971;DHT22;6550;48.650;8.774;2023-02-28T12:48:20;10.50;79.30
12971;DHT22;6550;48.650;8.774;2023-02-28T12:50:50;10.60;79.10
12971;DHT22;6550;48.650;8.774;2023-02-28T12:59:00;10.20;79.50
12971;DHT22;6550;48.650;8.774;2023-02-28T13:01:49;9.90;79.80
12971;DHT22;6550;48.650;8.774;2023-02-28T13:10:01;9.40;81.80
12971;DHT22;6550;48.650;8.774;2023-02-28T13:12:28;9.30;82.50
12971;DHT22;6550;48.650;8.774;2023-02-28T13:17:30;9.40;82.50
12971;DHT22;6550;48.650;8.774;2023-02-28T13:19:58;9.40;82.50
12971;DHT22;6550;48.650;8.774;2023-02-28T13:24:56;9.50;81.80
12971;DHT22;6550;48.650;8.774;2023-02-28T13:29:52;9.60;82.10
12971;DHT22;6550;48.650;8.774;2023-02-28T13:39:52;9.60;81.00
12971;DHT22;6550;48.650;8.774;2023-02-28T13:42:55;10.10;92.00
12971;DHT22;6550;48.650;8.774;2023-02-28T13:45:27;10.40;83.10
12971;DHT22;6550;48.650;8.774;2023-02-28T13:48:01;10.20;85.00
12971;DHT22;6550;48.650;8.774;2023-02-28T13:50:37;9.80;86.30
12971;DHT22;6550;48.650;8.774;2023-02-28T14:04:10;10.30;89.70
12971;DHT22;6550;48.650;8.774;2023-02-28T14:06:48;9.80;89.40
12971;DHT22;6550;48.650;8.774;2023-02-28T14:09:26;9.50;90.50
12971;DHT22;6550;48.650;8.774;2023-02-28T14:11:57;10.00;90.50
12971;DHT22;6550;48.650;8.774;2023-02-28T14:17:15;9.10;90.10
12971;DHT22;6550;48.650;8.774;2023-02-28T14:19:47;9.00;89.30
12971;DHT22;6550;48.650;8.774;2023-02-28T14:22:32;8.80;89.30
12971;DHT22;6550;48.650;8.774;2023-02-28T14:25:36;8.80;90.00
12971;DHT22;6550;48.650;8.774;2023-02-28T14:36:39;8.40;90.10
12971;DHT22;6550;48.650;8.774;2023-02-28T14:39:07;8.30;89.30
12971;DHT22;6550;48.650;8.774;2023-02-28T14:41:39;8.20;89.10
12971;DHT22;6550;48.650;8.774;2023-02-28T14:44:26;8.20;90.10
12971;DHT22;6550;48.650;8.774;2023-02-28T14:46:56;8.20;89.10
12971;DHT22;6550;48.650;8.774;2023-02-28T14:49:32;8.10;89.60
12971;DHT22;6550;48.650;8.774;2023-02-28T14:54:32;8.40;90.00
12971;DHT22;6550;48.650;8.774;2023-02-28T14:57:01;7.90;88.90
12971;DHT22;6550;48.650;8.774;2023-02-28T14:59:31;8.00;90.40
12971;DHT22;6550;48.650;8.774;2023-02-28T15:04:53;8.00;90.30
12971;DHT22;6550;48.650;8.774;2023-02-28T15:07:22;7.90;89.90
12971;DHT22;6550;48.650;8.774;2023-02-28T15:13:01;7.90;90.10
12971;DHT22;6550;48.650;8.774;2023-02-28T15:21:24;7.80;89.20
12971;DHT22;6550;48.650;8.774;2023-02-28T15:26:39;7.70;90.10
12971;DHT22;6550;48.650;8.774;2023-02-28T15:29:15;7.70;90.20
12971;DHT22;6550;48.650;8.774;2023-02-28T15:31:49;7.70;90.40
12971;DHT22;6550;48.650;8.774;2023-02-28T15:34:33;9.00;91.00
12971;DHT22;6550;48.650;8.774;2023-02-28T15:42:40;7.60;90.40
12971;DHT22;6550;48.650;8.774;2023-02-28T15:45:33;7.60;91.00
12971;DHT22;6550;48.650;8.774;2023-02-28T15:48:12;7.50;90.20
12971;DHT22;6550;48.650;8.774;2023-02-28T15:50:42;7.50;91.20
12971;DHT22;6550;48.650;8.774;2023-02-28T15:53:22;7.50;90.70
12971;DHT22;6550;48.650;8.774;2023-02-28T15:56:00;7.40;91.00
12971;DHT22;6550;48.650;8.774;2023-02-28T15:58:28;7.40;91.10
12971;DHT22;6550;48.650;8.774;2023-02-28T16:01:16;7.40;91.20
12971;DHT22;6550;48.650;8.774;2023-02-28T16:03:47;7.40;91.30
12971;DHT22;6550;48.650;8.774;2023-02-28T16:08:44;7.30;91.10
12971;DHT22;6550;48.650;8.774;2023-02-28T16:11:11;7.30;91.30
12971;DHT22;6550;48.650;8.774;2023-02-28T16:13:38;7.30;91.40
12971;DHT22;6550;48.650;8.774;2023-02-28T16:16:05;8.20;91.70
12971;DHT22;6550;48.650;8.774;2023-02-28T16:18:34;7.20;91.50
12971;DHT22;6550;48.650;8.774;2023-02-28T16:21:03;7.20;91.40
12971;DHT22;6550;48.650;8.774;2023-02-28T16:23:29;7.10;91.60
12971;DHT22;6550;48.650;8.774;2023-02-28T16:26:02;7.10;91.80
12971;DHT22;6550;48.650;8.774;2023-02-28T16:28:36;7.10;91.90
12971;DHT22;6550;48.650;8.774;2023-02-28T16:31:07;7.10;92.50
12971;DHT22;6550;48.650;8.774;2023-02-28T16:33:34;7.00;91.90
12971;DHT22;6550;48.650;8.774;2023-02-28T16:36:01;7.00;92.10
12971;DHT22;6550;48.650;8.774;2023-02-28T16:38:32;6.90;92.10
12971;DHT22;6550;48.650;8.774;2023-02-28T16:41:00;6.70;91.80
12971;DHT22;6550;48.650;8.774;2023-02-28T16:43:29;6.70;92.30
12971;DHT22;6550;48.650;8.774;2023-02-28T16:45:58;6.70;91.90
12971;DHT22;6550;48.650;8.774;2023-02-28T16:48:27;6.60;91.80
12971;DHT22;6550;48.650;8.774;2023-02-28T16:50:53;6.50;92.20
12971;DHT22;6550;48.650;8.774;2023-02-28T16:53:21;6.80;95.80
12971;DHT22;6550;48.650;8.774;2023-02-28T16:55:47;10.10;93.50
12971;DHT22;6550;48.650;8.774;2023-02-28T16:58:17;7.00;92.20
12971;DHT22;6550;48.650;8.774;2023-02-28T17:00:45;6.80;93.60
12971;DHT22;6550;48.650;8.774;2023-02-28T17:03:25;6.60;93.60
12971;DHT22;6550;48.650;8.774;2023-02-28T17:06:00;6.50;94.00
12971;DHT22;6550;48.650;8.774;2023-02-28T17:08:27;6.30;93.70
12971;DHT22;6550;48.650;8.774;2023-02-28T17:10:58;6.10;93.60
12971;DHT22;6550;48.650;8.774;2023-02-28T17:13:27;6.10;93.70
12971;DHT22;6550;48.650;8.774;2023-02-28T17:15:56;6.00;93.70
12971;DHT22;6550;48.650;8.774;2023-02-28T17:18:23;6.00;93.50
12971;DHT22;6550;48.650;8.774;2023-02-28T17:20:50;5.90;93.30
12971;DHT22;6550;48.650;8.774;2023-02-28T17:23:19;6.20;93.50
12971;DHT22;6550;48.650;8.774;2023-02-28T17:25:46;5.80;93.20
12971;DHT22;6550;48.650;8.774;2023-02-28T17:28:24;5.80;93.10
12971;DHT22;6550;48.650;8.774;2023-02-28T17:30:53;5.50;93.20
12971;DHT22;6550;48.650;8.774;2023-02-28T17:33:20;5.60;93.40
12971;DHT22;6550;48.650;8.774;2023-02-28T17:35:49;5.50;93.50
12971;DHT22;6550;48.650;8.774;2023-02-28T17:38:18;5.40;93.20
12971;DHT22;6550;48.650;8.774;2023-02-28T17:40:47;5.40;93.40
12971;DHT22;6550;48.650;8.774;2023-02-28T17:43:16;5.30;93.70
12971;DHT22;6550;48.650;8.774;2023-02-28T17:45:43;5.20;93.40
12971;DHT22;6550;48.650;8.774;2023-02-28T17:48:11;5.10;93.30
12971;DHT22;6550;48.650;8.774;2023-02-28T17:50:40;5.00;93.80
12971;DHT22;6550;48.650;8.774;2023-02-28T17:53:12;5.00;94.00
12971;DHT22;6550;48.650;8.774;2023-02-28T17:55:38;4.90;94.00
12971;DHT22;6550;48.650;8.774;2023-02-28T17:58:10;4.80;94.30
12971;DHT22;6550;48.650;8.774;2023-02-28T18:00:40;4.70;94.70
12971;DHT22;6550;48.650;8.774;2023-02-28T18:03:07;4.60;95.30
12971;DHT22;6550;48.650;8.774;2023-02-28T18:05:38;4.30;95.50
12971;DHT22;6550;48.650;8.774;2023-02-28T18:08:06;4.50;95.90
12971;DHT22;6550;48.650;8.774;2023-02-28T18:10:35;4.40;96.00
12971;DHT22;6550;48.650;8.774;2023-02-28T18:13:04;4.40;96.20
12971;DHT22;6550;48.650;8.774;2023-02-28T18:15:30;4.30;96.50
12971;DHT22;6550;48.650;8.774;2023-02-28T18:18:02;4.20;96.60
12971;DHT22;6550;48.650;8.774;2023-02-28T18:20:28;4.20;96.70
12971;DHT22;6550;48.650;8.774;2023-02-28T18:22:55;4.20;96.70
12971;DHT22;6550;48.650;8.774;2023-02-28T18:25:22;4.10;97.00
12971;DHT22;6550;48.650;8.774;2023-02-28T18:27:48;4.00;97.50
12971;DHT22;6550;48.650;8.774;2023-02-28T18:30:29;4.00;97.60
12971;DHT22;6550;48.650;8.774;2023-02-28T18:33:01;3.90;98.10
12971;DHT22;6550;48.650;8.774;2023-02-28T18:35:29;3.80;98.80
12971;DHT22;6550;48.650;8.774;2023-02-28T18:38:05;3.80;98.90
12971;DHT22;6550;48.650;8.774;2023-02-28T18:40:35;3.70;99.20
12971;DHT22;6550;48.650;8.774;2023-02-28T18:43:02;3.70;99.60
12971;DHT22;6550;48.650;8.774;2023-02-28T18:45:31;3.60;99.70
12971;DHT22;6550;48.650;8.774;2023-02-28T18:48:02;3.50;99.90
12971;DHT22;6550;48.650;8.774;2023-02-28T18:50:31;3.50;99.90
12971;DHT22;6550;48.650;8.774;2023-02-28T18:53:01;3.50;99.90
12971;DHT22;6550;48.650;8.774;2023-02-28T18:55:30;3.50;99.90
12971;DHT22;6550;48.650;8.774;2023-02-28T18:57:57;3.40;99.90
12971;DHT22;6550;48.650;8.774;2023-02-28T19:00:24;3.60;99.90
12971;DHT22;6550;48.650;8.774;2023-02-28T19:02:51;3.30;99.90
12971;DHT22;6550;48.650;8.774;2023-02-28T19:05:18;3.30;99.90
12971;DHT22;6550;48.650;8.774;2023-02-28T19:07:46;3.10;99.90
12971;DHT22;6550;48.650;8.774;2023-02-28T19:10:15;3.30;99.90
12971;DHT22;6550;48.650;8.774;2023-02-28T19:12:45;3.20;99.90
12971;DHT22;6550;48.650;8.774;2023-02-28T19:15:14;3.20;99.90
12971;DHT22;6550;48.650;8.774;2023-02-28T19:17:47;3.10;99.90
12971;DHT22;6550;48.650;8.774;2023-02-28T19:20:14;3.10;99.90
12971;DHT22;6550;48.650;8.774;2023-02-28T19:22:41;3.00;99.90
12971;DHT22;6550;48.650;8.774;2023-02-28T19:25:09;3.00;99.90
12971;DHT22;6550;48.650;8.774;2023-02-28T19:27:36;2.90;99.90
12971;DHT22;6550;48.650;8.774;2023-02-28T19:30:03;2.90;99.90
12971;DHT22;6550;48.650;8.774;2023-02-28T19:32:31;2.90;99.90
12971;DHT22;6550;48.650;8.774;2023-02-28T19:34:59;2.80;99.90
12971;DHT22;6550;48.650;8.774;2023-02-28T19:37:25;3.90;99.90